Time;durP1;ratioP1;P1;durP2;ratioP2;P2;SDS_P1;SDS_P2;PMS_P1;PMS_P2;Temp;Humidity;BMP_temperature;BMP_pressure;BME280_temperature;BME280_humidity;BME280_pressure;Samples;Min_cycle;Max_cycle;Signal;HPM_P1;HPM_P2
2022/12/10 00:00:00;;;;;;;;;;;;;;;13.23;58.15;97947.31;4357570;32;32879;-66
2022/12/10 00:02:27;;;;;;;;;;;;;;;13.08;58.69;97941.00;4360545;32;33331;-67
2022/12/10 00:04:55;;;;;;;;;;;;;;;12.98;58.88;97933.97;4362750;32;35042;-66
2022/12/10 00:07:22;;;;;;;;;;;;;;;13.13;58.53;97931.41;4358548;32;34149;-66
2022/12/10 00:09:50;;;;;;;;;;;;;;;13.15;58.50;97933.91;4351020;32;35170;-66
2022/12/10 00:12:17;;;;;;;;;;;;;;;13.15;58.42;97941.97;4359766;32;33197;-65
2022/12/10 00:14:44;;;;;;;;;;;;;;;13.20;58.20;97951.19;4362685;32;34110;-67
2022/12/10 00:17:12;;;;;;;;;;;;;;;13.20;58.17;97953.88;4365183;32;35216;-67
2022/12/10 00:19:39;;;;;;;;;;;;;;;13.20;58.24;97956.56;4357572;32;33593;-66
2022/12/10 00:22:06;;;;;;;;;;;;;;;13.18;58.11;97949.69;4359547;32;33570;-66
2022/12/10 00:24:34;;;;;;;;;;;;;;;12.73;59.37;97964.59;4363324;32;34253;-67
2022/12/10 00:27:01;;;;;;;;;;;;;;;13.02;58.61;97966.69;4360598;32;35877;-67
2022/12/10 00:29:28;;;;;;;;;;;;;;;13.11;58.29;97968.34;4362376;32;34048;-65
2022/12/10 00:31:55;;;;;;;;;;;;;;;12.94;58.84;97981.00;4359460;32;32919;-66
2022/12/10 00:34:23;;;;;;;;;;;;;;;12.90;59.60;97976.97;4359707;32;35297;-64
2022/12/10 00:36:51;;;;;;;;;;;;;;;12.46;62.08;97976.56;4362033;32;34855;-66
2022/12/10 00:39:19;;;;;;;;;;;;;;;12.29;63.14;97983.78;4361983;32;33872;-65
2022/12/10 00:41:46;;;;;;;;;;;;;;;12.07;64.09;97975.41;4355326;32;34495;-65
2022/12/10 00:44:14;;;;;;;;;;;;;;;12.03;64.09;97975.91;4359789;32;34290;-66
2022/12/10 00:46:41;;;;;;;;;;;;;;;11.79;65.11;97977.53;4362940;32;35209;-66
2022/12/10 00:49:09;;;;;;;;;;;;;;;11.71;65.59;97988.22;4361712;32;35226;-67
2022/12/10 00:51:36;;;;;;;;;;;;;;;11.90;64.75;97984.44;4359893;32;33183;-66
2022/12/10 00:54:03;;;;;;;;;;;;;;;11.87;64.80;97988.28;4360959;32;34469;-66
2022/12/10 00:56:32;;;;;;;;;;;;;;;11.61;65.62;97984.88;4361887;32;34361;-66
2022/12/10 00:58:59;;;;;;;;;;;;;;;11.81;65.32;97991.63;4361925;32;34348;-65
2022/12/10 01:01:28;;;;;;;;;;;;;;;11.97;64.30;97990.81;4358635;32;33301;-66
2022/12/10 01:03:56;;;;;;;;;;;;;;;12.01;64.46;97989.50;4360803;32;33848;-67
2022/12/10 01:06:23;;;;;;;;;;;;;;;12.02;64.21;97993.00;4357112;32;34355;-67
2022/12/10 01:08:51;;;;;;;;;;;;;;;11.99;64.17;98006.75;4362281;32;32676;-67
2022/12/10 01:11:19;;;;;;;;;;;;;;;11.98;64.55;97997.03;4362224;32;33563;-67
2022/12/10 01:13:47;;;;;;;;;;;;;;;12.11;64.26;98003.56;4361061;32;34493;-66
2022/12/10 01:16:16;;;;;;;;;;;;;;;12.41;63.11;98013.78;4362777;32;34169;-66
2022/12/10 01:18:44;;;;;;;;;;;;;;;12.41;62.84;98011.94;4361594;32;33656;-65
2022/12/10 01:21:13;;;;;;;;;;;;;;;12.21;63.46;98014.13;4359068;32;33513;-65
2022/12/10 01:23:41;;;;;;;;;;;;;;;12.42;62.82;98010.94;4361590;32;34858;-67
2022/12/10 01:26:10;;;;;;;;;;;;;;;12.34;63.13;98011.78;4359515;32;34065;-68
2022/12/10 01:28:38;;;;;;;;;;;;;;;12.58;62.22;97997.53;4360823;32;33763;-65
2022/12/10 01:31:07;;;;;;;;;;;;;;;12.66;62.08;98014.63;4357349;32;32808;-67
2022/12/10 01:33:36;;;;;;;;;;;;;;;12.79;61.63;98020.28;4360043;32;34329;-67
2022/12/10 01:36:08;;;;;;;;;;;;;;;12.72;61.67;98011.25;4359544;32;35369;-66
2022/12/10 01:38:35;;;;;;;;;;;;;;;12.77;61.52;98011.56;4361683;32;34354;-66
2022/12/10 01:41:03;;;;;;;;;;;;;;;12.97;61.05;98004.81;4365586;32;33143;-68
2022/12/10 01:43:50;;;;;;;;;;;;;;;12.96;61.02;98015.72;4366118;32;33229;-67
2022/12/10 01:46:18;;;;;;;;;;;;;;;12.88;61.11;98010.38;4359572;32;33920;-68
2022/12/10 01:48:45;;;;;;;;;;;;;;;13.05;60.67;98012.00;4359581;32;35197;-66
2022/12/10 01:51:12;;;;;;;;;;;;;;;13.06;60.55;98013.66;4356435;32;33154;-66
2022/12/10 01:53:40;;;;;;;;;;;;;;;13.22;59.81;98032.41;4355542;32;33912;-68
2022/12/10 01:56:09;;;;;;;;;;;;;;;13.21;59.60;98033.44;4354775;32;34792;-67
2022/12/10 01:58:36;;;;;;;;;;;;;;;13.25;59.18;98026.72;4361603;32;34401;-67
2022/12/10 02:01:09;;;;;;;;;;;;;;;12.62;60.55;98040.97;4360603;32;33528;-67
2022/12/10 02:03:50;;;;;;;;;;;;;;;13.03;59.55;98036.38;4357762;32;34337;-69
2022/12/10 02:06:37;;;;;;;;;;;;;;;12.35;61.74;98045.66;4360970;32;34260;-66
2022/12/10 02:09:17;;;;;;;;;;;;;;;12.54;60.82;98041.78;4359040;32;33948;-67
2022/12/10 02:12:05;;;;;;;;;;;;;;;12.51;60.41;98052.84;4360219;32;33265;-65
2022/12/10 02:14:38;;;;;;;;;;;;;;;11.99;62.03;98050.47;4341874;32;34085;-66
2022/12/10 02:17:08;;;;;;;;;;;;;;;11.83;62.46;98056.59;4345033;32;34533;-68
2022/12/10 02:19:41;;;;;;;;;;;;;;;11.72;62.77;98067.66;4344409;32;34251;-67
2022/12/10 02:22:08;;;;;;;;;;;;;;;12.11;61.00;98051.84;4334700;32;33893;-65
2022/12/10 02:24:36;;;;;;;;;;;;;;;11.66;62.40;98057.56;4360018;32;34088;-66
2022/12/10 02:27:15;;;;;;;;;;;;;;;11.42;63.28;98053.78;4345073;32;34074;-68
2022/12/10 02:29:43;;;;;;;;;;;;;;;11.64;62.54;98062.25;4344152;32;33934;-66
2022/12/10 02:32:11;;;;;;;;;;;;;;;11.23;63.67;98059.38;4355315;32;34901;-69
2022/12/10 02:34:46;;;;;;;;;;;;;;;11.52;62.72;98064.37;4346603;32;33849;-66
2022/12/10 02:37:15;;;;;;;;;;;;;;;10.98;64.40;98065.59;4343805;32;35309;-65
2022/12/10 02:39:44;;;;;;;;;;;;;;;11.21;63.08;98058.72;4334591;32;33842;-69
2022/12/10 02:42:11;;;;;;;;;;;;;;;10.95;63.93;98054.25;4358658;32;33353;-67
2022/12/10 02:44:40;;;;;;;;;;;;;;;11.24;63.38;98039.66;4354641;32;33874;-66
2022/12/10 02:47:08;;;;;;;;;;;;;;;11.02;64.33;98041.06;4357243;32;35228;-65
2022/12/10 02:49:35;;;;;;;;;;;;;;;11.22;63.09;98038.12;4344760;32;33826;-67
2022/12/10 02:52:07;;;;;;;;;;;;;;;11.23;63.17;98046.00;4349443;32;33407;-66
2022/12/10 02:54:42;;;;;;;;;;;;;;;11.34;62.67;98043.06;4358090;32;33788;-67
2022/12/10 02:57:20;;;;;;;;;;;;;;;10.80;64.05;98049.63;4356094;32;35772;-66
2022/12/10 02:59:47;;;;;;;;;;;;;;;11.11;62.68;98060.69;4350444;32;34610;-65
2022/12/10 03:02:19;;;;;;;;;;;;;;;11.43;62.00;98060.84;4359866;32;33069;-66
2022/12/10 03:04:57;;;;;;;;;;;;;;;10.94;63.87;98062.41;4358358;32;34397;-67
2022/12/10 03:07:26;;;;;;;;;;;;;;;11.62;61.23;98058.88;4348967;32;35360;-66
2022/12/10 03:09:56;;;;;;;;;;;;;;;11.62;61.08;98072.28;4345796;32;34448;-65
2022/12/10 03:12:31;;;;;;;;;;;;;;;11.85;59.97;98073.41;4355867;32;32889;-66
2022/12/10 03:14:59;;;;;;;;;;;;;;;11.65;60.41;98075.50;4359145;32;34408;-65
2022/12/10 03:17:27;;;;;;;;;;;;;;;11.65;60.57;98075.50;4357379;32;35506;-64
2022/12/10 03:19:54;;;;;;;;;;;;;;;11.51;60.90;98073.41;4357071;32;34780;-66
2022/12/10 03:22:21;;;;;;;;;;;;;;;11.13;61.75;98082.78;4345900;32;33630;-67
2022/12/10 03:24:49;;;;;;;;;;;;;;;11.46;60.66;98086.47;4355188;32;34162;-66
2022/12/10 03:27:16;;;;;;;;;;;;;;;10.77;63.18;98087.41;4345695;32;35248;-65
2022/12/10 03:29:45;;;;;;;;;;;;;;;11.38;61.50;98078.38;4359258;32;34135;-66
2022/12/10 03:32:13;;;;;;;;;;;;;;;11.25;61.58;98083.34;4345840;32;32130;-68
2022/12/10 03:34:41;;;;;;;;;;;;;;;11.21;61.63;98084.69;4347819;32;35176;-66
2022/12/10 03:37:08;;;;;;;;;;;;;;;11.25;60.99;98075.31;4346523;32;35476;-66
2022/12/10 03:39:36;;;;;;;;;;;;;;;11.12;61.01;98081.94;4353881;32;35244;-66
2022/12/10 03:42:04;;;;;;;;;;;;;;;10.84;61.51;98067.88;4360515;32;33077;-67
2022/12/10 03:44:37;;;;;;;;;;;;;;;10.52;62.64;98084.53;4354527;32;34046;-66
2022/12/10 03:47:05;;;;;;;;;;;;;;;10.70;61.82;98080.00;4358564;32;35139;-66
2022/12/10 03:49:32;;;;;;;;;;;;;;;10.47;62.49;98089.50;4359732;32;34026;-65
2022/12/10 03:51:59;;;;;;;;;;;;;;;10.49;62.64;98084.84;4360001;32;33904;-65
2022/12/10 03:54:26;;;;;;;;;;;;;;;10.47;62.73;98085.00;4353459;32;34444;-66
2022/12/10 03:56:54;;;;;;;;;;;;;;;10.34;63.12;98094.41;4354569;32;34244;-65
2022/12/10 03:59:21;;;;;;;;;;;;;;;10.58;62.19;98088.44;4354609;32;34980;-65
2022/12/10 04:01:48;;;;;;;;;;;;;;;10.43;62.54;98093.47;4344741;32;34418;-66
2022/12/10 04:04:16;;;;;;;;;;;;;;;10.53;62.30;98098.75;4356912;32;35015;-67
2022/12/10 04:06:43;;;;;;;;;;;;;;;10.41;63.03;98107.00;4350161;32;34253;-66
2022/12/10 04:09:11;;;;;;;;;;;;;;;10.99;61.45;98118.16;4357279;32;35234;-65
2022/12/10 04:11:38;;;;;;;;;;;;;;;10.89;61.43;98118.28;4359555;32;32153;-68
2022/12/10 04:16:53;;;;;;;;;;;;;;;10.83;61.66;98117.06;4358068;32;35514;-66
2022/12/10 04:19:21;;;;;;;;;;;;;;;11.11;60.39;98119.59;4357549;32;34271;-66
2022/12/10 04:27:33;;;;;;;;;;;;;;;10.22;63.30;98121.34;4357472;32;34296;-67
2022/12/10 04:30:00;;;;;;;;;;;;;;;10.27;63.53;98120.91;4356133;32;34323;-67
2022/12/10 04:32:28;;;;;;;;;;;;;;;10.54;62.21;98116.50;4359429;32;34599;-65
2022/12/10 04:34:55;;;;;;;;;;;;;;;10.32;63.22;98115.94;4358518;32;33633;-67
2022/12/10 04:37:23;;;;;;;;;;;;;;;10.62;62.04;98112.03;4356317;32;34499;-66
2022/12/10 04:39:50;;;;;;;;;;;;;;;10.87;61.60;98123.75;4358346;32;34980;-64
2022/12/10 04:42:18;;;;;;;;;;;;;;;11.01;60.95;98113.47;4359450;32;33030;-63
2022/12/10 04:44:45;;;;;;;;;;;;;;;11.14;60.45;98120.13;4357707;32;34253;-64
2022/12/10 04:47:12;;;;;;;;;;;;;;;10.32;62.76;98118.63;4360507;32;34225;-65
2022/12/10 04:49:39;;;;;;;;;;;;;;;10.59;62.38;98112.34;4370410;32;34153;-64
2022/12/10 04:52:07;;;;;;;;;;;;;;;10.76;61.61;98105.31;4357761;32;33617;-67
2022/12/10 04:54:34;;;;;;;;;;;;;;;10.82;61.59;98098.47;4357253;32;34397;-64
2022/12/10 04:57:05;;;;;;;;;;;;;;;10.82;61.78;98091.28;4351899;32;35145;-65
2022/12/10 04:59:33;;;;;;;;;;;;;;;10.96;60.79;98095.22;4354017;32;35171;-66
2022/12/10 05:02:00;;;;;;;;;;;;;;;10.57;62.48;98086.75;4353237;32;34331;-66
2022/12/10 05:04:27;;;;;;;;;;;;;;;10.58;62.51;98085.75;4354697;32;34051;-66
2022/12/10 05:06:55;;;;;;;;;;;;;;;10.70;61.76;98096.06;4355811;32;34226;-66
2022/12/10 05:09:25;;;;;;;;;;;;;;;10.67;61.50;98099.03;4357730;32;34936;-65
2022/12/10 05:11:52;;;;;;;;;;;;;;;10.80;60.76;98117.38;4358060;32;33069;-66
2022/12/10 05:14:20;;;;;;;;;;;;;;;10.27;62.78;98118.22;4360347;32;34119;-65
2022/12/10 05:16:48;;;;;;;;;;;;;;;10.31;62.72;98124.97;4353762;32;35836;-65
2022/12/10 05:19:16;;;;;;;;;;;;;;;10.69;61.56;98131.00;4359041;32;35048;-66
2022/12/10 05:24:29;;;;;;;;;;;;;;;10.81;61.05;98139.59;4347225;32;34194;-67
2022/12/10 05:26:56;;;;;;;;;;;;;;;10.76;61.30;98139.25;4358658;32;32926;-66
2022/12/10 05:29:24;;;;;;;;;;;;;;;10.78;60.87;98138.06;4357880;32;32933;-67
2022/12/10 05:31:51;;;;;;;;;;;;;;;10.89;60.86;98142.38;4356591;32;32095;-65
2022/12/10 05:34:19;;;;;;;;;;;;;;;10.65;61.50;98133.13;4358478;32;33821;-65
2022/12/10 05:36:46;;;;;;;;;;;;;;;10.54;61.60;98136.06;4355991;32;34498;-65
2022/12/10 05:39:13;;;;;;;;;;;;;;;9.78;64.06;98139.06;4357971;32;34210;-64
2022/12/10 05:41:41;;;;;;;;;;;;;;;10.45;61.63;98148.50;4358844;32;33561;-65
2022/12/10 05:44:09;;;;;;;;;;;;;;;10.51;61.70;98151.56;4359451;32;33761;-65
2022/12/10 05:46:36;;;;;;;;;;;;;;;10.06;63.32;98147.06;4357540;32;35758;-66
2022/12/10 05:49:04;;;;;;;;;;;;;;;10.57;61.60;98150.97;4351233;32;35273;-65
2022/12/10 05:51:33;;;;;;;;;;;;;;;10.44;61.39;98157.53;4356672;32;33871;-66
2022/12/10 05:54:01;;;;;;;;;;;;;;;10.88;59.54;98160.25;4358173;32;34065;-65
2022/12/10 05:56:28;;;;;;;;;;;;;;;10.41;61.34;98154.31;4358808;32;34064;-66
2022/12/10 05:59:00;;;;;;;;;;;;;;;10.42;61.94;98146.12;4357229;32;35310;-66
2022/12/10 06:01:28;;;;;;;;;;;;;;;10.53;60.92;98141.53;4354892;32;33657;-65
2022/12/10 06:03:56;;;;;;;;;;;;;;;10.49;61.06;98147.19;4357195;32;34157;-66
2022/12/10 06:06:24;;;;;;;;;;;;;;;10.47;61.16;98156.37;4357780;32;34063;-66
2022/12/10 06:08:51;;;;;;;;;;;;;;;10.90;59.78;98158.25;4357290;32;34460;-65
2022/12/10 06:11:19;;;;;;;;;;;;;;;10.84;59.70;98156.19;4357035;32;33603;-65
2022/12/10 06:13:46;;;;;;;;;;;;;;;10.67;60.31;98162.41;4355441;32;34203;-66
2022/12/10 06:16:21;;;;;;;;;;;;;;;10.65;60.31;98169.75;4357223;32;34404;-65
2022/12/10 06:18:48;;;;;;;;;;;;;;;10.41;60.19;98176.56;4357032;32;33954;-66
2022/12/10 06:21:15;;;;;;;;;;;;;;;10.53;60.40;98165.63;4359525;32;34039;-66
2022/12/10 06:23:43;;;;;;;;;;;;;;;10.30;61.25;98167.91;4360269;32;32656;-64
2022/12/10 06:26:12;;;;;;;;;;;;;;;9.85;62.22;98172.22;4358638;32;34306;-66
2022/12/10 06:28:39;;;;;;;;;;;;;;;9.31;64.16;98169.34;4350214;32;34809;-65
2022/12/10 06:31:07;;;;;;;;;;;;;;;9.60;63.06;98184.44;4359330;32;32000;-65
2022/12/10 06:33:34;;;;;;;;;;;;;;;9.55;63.00;98181.34;4356044;32;35120;-65
2022/12/10 06:36:05;;;;;;;;;;;;;;;8.79;65.25;98176.03;4360649;32;32714;-65
2022/12/10 06:38:33;;;;;;;;;;;;;;;9.40;63.62;98183.62;4356516;32;34630;-67
2022/12/10 06:41:01;;;;;;;;;;;;;;;9.25;63.96;98185.09;4358602;32;33418;-68
2022/12/10 06:43:29;;;;;;;;;;;;;;;9.44;62.89;98178.87;4345624;32;33899;-67
2022/12/10 06:45:56;;;;;;;;;;;;;;;8.36;65.95;98190.59;4357951;32;33086;-67
2022/12/10 06:48:25;;;;;;;;;;;;;;;9.47;63.20;98197.25;4362647;32;34269;-67
2022/12/10 06:50:52;;;;;;;;;;;;;;;9.33;63.14;98204.72;4357252;32;33125;-67
2022/12/10 06:53:19;;;;;;;;;;;;;;;8.86;63.97;98203.84;4358993;32;32326;-67
2022/12/10 06:55:46;;;;;;;;;;;;;;;9.15;63.38;98206.47;4360015;32;34157;-66
2022/12/10 06:58:14;;;;;;;;;;;;;;;9.32;64.37;98204.91;4356996;32;34205;-66
2022/12/10 07:00:41;;;;;;;;;;;;;;;9.27;62.40;98199.12;4360839;32;33013;-66
2022/12/10 07:03:08;;;;;;;;;;;;;;;9.41;62.63;98193.34;4353784;32;34983;-66
2022/12/10 07:05:35;;;;;;;;;;;;;;;9.71;61.19;98188.75;4360877;32;35556;-66
2022/12/10 07:08:03;;;;;;;;;;;;;;;9.16;63.34;98183.31;4355551;32;32927;-66
2022/12/10 07:10:30;;;;;;;;;;;;;;;9.48;62.31;98191.78;4363058;32;32935;-67
2022/12/10 07:12:57;;;;;;;;;;;;;;;9.70;61.81;98197.75;4357026;32;34334;-66
2022/12/10 07:15:27;;;;;;;;;;;;;;;10.09;60.20;98197.56;4356384;32;33871;-67
2022/12/10 07:17:54;;;;;;;;;;;;;;;10.30;59.24;98186.63;4362129;32;33452;-67
2022/12/10 07:20:21;;;;;;;;;;;;;;;9.55;60.69;98182.19;4360081;32;33304;-66
2022/12/10 07:22:49;;;;;;;;;;;;;;;10.21;60.12;98185.69;4360684;32;33572;-67
2022/12/10 07:25:16;;;;;;;;;;;;;;;10.40;58.88;98174.00;4362693;32;34331;-67
2022/12/10 07:27:43;;;;;;;;;;;;;;;10.56;58.83;98165.31;4361177;32;33557;-67
2022/12/10 07:30:11;;;;;;;;;;;;;;;10.76;58.01;98157.97;4353891;32;33280;-67
2022/12/10 07:32:38;;;;;;;;;;;;;;;10.17;58.91;98154.88;4361122;32;32751;-67
2022/12/10 07:35:05;;;;;;;;;;;;;;;10.66;57.63;98150.88;4359283;32;34402;-65
2022/12/10 07:37:33;;;;;;;;;;;;;;;11.15;56.63;98155.75;4362880;32;35002;-66
2022/12/10 07:40:00;;;;;;;;;;;;;;;10.70;57.66;98168.28;4361838;32;33362;-67
2022/12/10 07:42:27;;;;;;;;;;;;;;;10.33;59.61;98170.28;4357007;32;34238;-66
2022/12/10 07:44:55;;;;;;;;;;;;;;;10.85;57.04;98181.13;4354658;32;33007;-66
2022/12/10 07:47:22;;;;;;;;;;;;;;;11.09;55.78;98183.16;4363238;32;34368;-65
2022/12/10 07:49:49;;;;;;;;;;;;;;;11.17;56.04;98192.09;4348900;32;31837;-66
2022/12/10 07:52:16;;;;;;;;;;;;;;;10.74;57.67;98198.25;4361470;32;33806;-67
2022/12/10 07:54:44;;;;;;;;;;;;;;;10.29;59.01;98199.16;4360697;32;34278;-68
2022/12/10 07:57:11;;;;;;;;;;;;;;;10.00;59.83;98194.78;4362205;32;35074;-66
2022/12/10 07:59:38;;;;;;;;;;;;;;;11.16;56.00;98194.94;4358487;32;33170;-67
2022/12/10 08:02:05;;;;;;;;;;;;;;;11.62;53.94;98208.94;4358872;32;36070;-67
2022/12/10 08:04:35;;;;;;;;;;;;;;;11.17;55.02;98208.19;4359817;32;35098;-68
2022/12/10 08:07:02;;;;;;;;;;;;;;;10.00;58.87;98204.63;4359105;32;34171;-66
2022/12/10 08:09:30;;;;;;;;;;;;;;;10.32;57.82;98195.34;4358785;32;33915;-67
2022/12/10 08:11:58;;;;;;;;;;;;;;;10.52;57.47;98193.38;4358491;32;34210;-66
2022/12/10 08:14:25;;;;;;;;;;;;;;;9.37;59.79;98202.63;4349789;32;33915;-67
2022/12/10 08:16:52;;;;;;;;;;;;;;;10.06;58.67;98196.03;4360154;32;32697;-67
2022/12/10 08:19:20;;;;;;;;;;;;;;;10.28;56.46;98176.09;4351689;32;32099;-67
2022/12/10 08:21:53;;;;;;;;;;;;;;;10.60;56.09;98178.25;4359633;32;35332;-66
2022/12/10 08:24:20;;;;;;;;;;;;;;;10.98;54.96;98186.06;4357049;32;32954;-67
2022/12/10 08:26:47;;;;;;;;;;;;;;;10.87;54.61;98176.47;4356246;32;35205;-66
2022/12/10 08:29:14;;;;;;;;;;;;;;;10.95;55.33;98181.91;4361211;32;32505;-66
2022/12/10 08:31:42;;;;;;;;;;;;;;;10.76;55.92;98179.41;4358181;32;34246;-66
2022/12/10 08:34:13;;;;;;;;;;;;;;;11.51;54.39;98179.75;4361089;32;34368;-68
2022/12/10 08:36:40;;;;;;;;;;;;;;;11.10;54.63;98177.63;4359310;32;34501;-67
2022/12/10 08:39:10;;;;;;;;;;;;;;;11.29;54.43;98183.81;4345890;32;33704;-65
2022/12/10 08:41:37;;;;;;;;;;;;;;;11.52;54.34;98184.09;4357331;32;33013;-66
2022/12/10 08:44:04;;;;;;;;;;;;;;;11.81;52.73;98198.03;4358974;32;33995;-68
2022/12/10 08:46:32;;;;;;;;;;;;;;;11.95;52.69;98195.75;4354039;32;34017;-66
2022/12/10 08:48:59;;;;;;;;;;;;;;;11.35;54.01;98199.25;4362305;32;31880;-67
2022/12/10 08:51:27;;;;;;;;;;;;;;;11.55;52.95;98202.53;4357193;32;35220;-67
2022/12/10 08:53:55;;;;;;;;;;;;;;;11.66;52.72;98207.66;4355378;32;35531;-66
2022/12/10 08:56:22;;;;;;;;;;;;;;;11.88;52.19;98209.81;4358106;32;34833;-66
2022/12/10 08:58:51;;;;;;;;;;;;;;;11.35;53.71;98208.13;4360250;32;33258;-66
2022/12/10 09:01:18;;;;;;;;;;;;;;;11.24;54.14;98213.75;4359838;32;35294;-66
2022/12/10 09:03:46;;;;;;;;;;;;;;;11.64;52.30;98223.03;4358281;32;32988;-66
2022/12/10 09:06:16;;;;;;;;;;;;;;;11.22;54.25;98221.09;4357118;32;33270;-68
2022/12/10 09:08:43;;;;;;;;;;;;;;;11.42;52.56;98222.56;4361651;32;35081;-66
2022/12/10 09:11:12;;;;;;;;;;;;;;;11.41;53.38;98231.59;4359036;32;33726;-66
2022/12/10 09:13:40;;;;;;;;;;;;;;;11.63;52.97;98224.87;4336465;32;793996;-66
2022/12/10 09:16:08;;;;;;;;;;;;;;;11.65;53.16;98222.91;4354836;32;32886;-66
2022/12/10 09:18:35;;;;;;;;;;;;;;;11.80;52.46;98224.97;4362529;32;33340;-67
2022/12/10 09:21:06;;;;;;;;;;;;;;;11.28;53.84;98220.47;4365575;32;33960;-67
2022/12/10 09:23:33;;;;;;;;;;;;;;;11.26;53.53;98218.94;4358405;32;35252;-67
2022/12/10 09:26:01;;;;;;;;;;;;;;;11.99;51.90;98210.53;4350243;32;35243;-66
2022/12/10 09:28:28;;;;;;;;;;;;;;;12.08;51.09;98212.25;4359592;32;33400;-66
2022/12/10 09:30:57;;;;;;;;;;;;;;;11.71;52.55;98213.34;4358145;32;34964;-67
2022/12/10 09:33:24;;;;;;;;;;;;;;;11.58;52.35;98221.00;4361357;32;34003;-66
2022/12/10 09:35:52;;;;;;;;;;;;;;;11.40;52.42;98218.37;4361198;32;32843;-66
2022/12/10 09:38:19;;;;;;;;;;;;;;;11.31;53.13;98213.97;4369442;32;33307;-66
2022/12/10 09:40:49;;;;;;;;;;;;;;;11.15;53.32;98203.97;4370414;32;32886;-66
2022/12/10 09:43:21;;;;;;;;;;;;;;;11.16;54.30;98194.94;4356264;32;34084;-66
2022/12/10 09:45:59;;;;;;;;;;;;;;;11.00;54.52;98184.94;4347426;32;34247;-66
2022/12/10 09:48:30;;;;;;;;;;;;;;;11.03;53.47;98179.25;4358897;32;34480;-67
2022/12/10 09:51:03;;;;;;;;;;;;;;;11.07;54.37;98177.94;4363826;32;34203;-66
2022/12/10 09:53:31;;;;;;;;;;;;;;;11.37;53.59;98165.13;4360308;32;32867;-67
2022/12/10 09:55:58;;;;;;;;;;;;;;;11.33;53.95;98153.88;4360983;32;34196;-66
2022/12/10 09:58:26;;;;;;;;;;;;;;;11.63;52.80;98146.34;4359712;32;33262;-66
2022/12/10 10:01:03;;;;;;;;;;;;;;;11.24;52.89;98144.13;4354700;32;33825;-66
2022/12/10 10:03:31;;;;;;;;;;;;;;;11.03;54.19;98146.31;4357185;32;34479;-67
2022/12/10 10:05:58;;;;;;;;;;;;;;;11.05;54.94;98147.84;4358581;32;32977;-66
2022/12/10 10:08:42;;;;;;;;;;;;;;;10.86;55.12;98135.47;4360485;32;33654;-66
2022/12/10 10:11:17;;;;;;;;;;;;;;;11.06;54.06;98144.16;4346637;32;32641;-67
2022/12/10 10:13:47;;;;;;;;;;;;;;;10.65;55.15;98143.00;4359172;32;35522;-66
2022/12/10 10:16:27;;;;;;;;;;;;;;;11.18;54.07;98136.72;4341031;32;34150;-66
2022/12/10 10:18:58;;;;;;;;;;;;;;;11.51;53.27;98142.25;4359465;32;33753;-66
2022/12/10 10:21:27;;;;;;;;;;;;;;;11.98;51.07;98139.97;4361008;32;34122;-67
2022/12/10 10:23:55;;;;;;;;;;;;;;;11.65;52.41;98134.47;4351129;32;35657;-66
2022/12/10 10:26:25;;;;;;;;;;;;;;;11.81;52.52;98149.78;4352562;32;33897;-66
2022/12/10 10:28:57;;;;;;;;;;;;;;;11.85;52.19;98148.47;4332317;33;34127;-67
2022/12/10 10:31:25;;;;;;;;;;;;;;;12.14;51.29;98157.97;4326935;33;34296;-66
2022/12/10 10:34:13;;;;;;;;;;;;;;;12.02;51.37;98154.72;4329961;33;35519;-66
2022/12/10 10:36:40;;;;;;;;;;;;;;;12.23;51.01;98156.97;4323461;33;33863;-66
2022/12/10 10:39:21;;;;;;;;;;;;;;;12.05;51.51;98159.75;4327937;33;32874;-66
2022/12/10 10:41:50;;;;;;;;;;;;;;;12.12;51.77;98152.75;4348565;32;34524;-66
2022/12/10 10:44:34;;;;;;;;;;;;;;;12.28;50.45;98154.63;4331134;33;34441;-66
2022/12/10 10:47:01;;;;;;;;;;;;;;;12.08;50.51;98158.59;4324861;33;32085;-66
2022/12/10 10:49:31;;;;;;;;;;;;;;;12.02;51.44;98159.25;4327690;33;33436;-66
2022/12/10 10:52:00;;;;;;;;;;;;;;;11.16;53.57;98162.78;4329088;33;34026;-67
2022/12/10 10:54:32;;;;;;;;;;;;;;;12.20;51.00;98156.44;4346694;33;34145;-66
2022/12/10 10:57:23;;;;;;;;;;;;;;;12.37;50.36;98154.66;4329550;33;32799;-66
2022/12/10 10:59:54;;;;;;;;;;;;;;;12.27;51.00;98144.06;4325508;33;35008;-66
2022/12/10 11:02:33;;;;;;;;;;;;;;;11.65;52.71;98144.31;4332585;33;34017;-66
2022/12/10 11:05:07;;;;;;;;;;;;;;;12.01;51.72;98141.50;4331597;33;34166;-67
2022/12/10 11:07:36;;;;;;;;;;;;;;;11.89;52.46;98135.59;4331021;33;34839;-67
2022/12/10 11:10:04;;;;;;;;;;;;;;;11.64;53.27;98123.88;4324499;33;33821;-67
2022/12/10 11:12:35;;;;;;;;;;;;;;;11.51;52.70;98128.84;4345354;32;35467;-66
2022/12/10 11:15:23;;;;;;;;;;;;;;;11.69;52.36;98132.28;4356558;32;32702;-67
2022/12/10 11:17:51;;;;;;;;;;;;;;;11.90;51.87;98131.88;4326819;33;34831;-66
2022/12/10 11:20:19;;;;;;;;;;;;;;;11.51;53.19;98129.69;4330156;33;33495;-66
2022/12/10 11:23:02;;;;;;;;;;;;;;;12.16;51.16;98123.75;4345459;32;33608;-66
2022/12/10 11:25:48;;;;;;;;;;;;;;;12.12;51.49;98114.34;4353715;32;35542;-67
2022/12/10 11:28:34;;;;;;;;;;;;;;;11.37;53.19;98117.75;4360158;32;33026;-67
2022/12/10 11:31:22;;;;;;;;;;;;;;;11.62;52.55;98115.16;4357734;32;33223;-69
2022/12/10 11:33:53;;;;;;;;;;;;;;;10.96;54.56;98106.78;4362297;32;34240;-68
2022/12/10 11:36:35;;;;;;;;;;;;;;;11.36;52.94;98089.28;4347355;32;33717;-69
2022/12/10 11:39:15;;;;;;;;;;;;;;;11.54;52.96;98078.47;4358717;32;34190;-67
2022/12/10 11:41:52;;;;;;;;;;;;;;;11.37;53.69;98072.19;4360131;32;31492;-68
2022/12/10 11:44:19;;;;;;;;;;;;;;;11.41;53.53;98070.88;4359560;32;34992;-68
2022/12/10 11:47:10;;;;;;;;;;;;;;;11.69;52.80;98067.97;4360935;32;33027;-66
2022/12/10 11:49:54;;;;;;;;;;;;;;;11.78;52.73;98074.19;4343816;32;34054;-68
2022/12/10 11:52:34;;;;;;;;;;;;;;;11.49;53.48;98055.81;4348845;32;33435;-69
2022/12/10 11:55:04;;;;;;;;;;;;;;;11.61;53.35;98050.00;4355815;32;34210;-67
2022/12/10 11:57:38;;;;;;;;;;;;;;;11.32;53.86;98044.22;4356328;32;34444;-68
2022/12/10 12:00:24;;;;;;;;;;;;;;;11.55;53.35;98039.09;4361494;32;34364;-69
2022/12/10 12:03:06;;;;;;;;;;;;;;;11.52;53.16;98050.16;4356361;32;32260;-67
2022/12/10 12:05:52;;;;;;;;;;;;;;;11.06;54.98;98046.94;4359734;32;34416;-67
2022/12/10 12:08:46;;;;;;;;;;;;;;;11.28;54.13;98049.06;4358881;32;34288;-67
2022/12/10 12:11:16;;;;;;;;;;;;;;;11.48;53.76;98046.94;4357205;32;34148;-67
2022/12/10 12:14:02;;;;;;;;;;;;;;;11.03;54.56;98039.22;4358563;32;34492;-68
2022/12/10 12:16:37;;;;;;;;;;;;;;;11.11;55.25;98049.97;4347274;32;35195;-67
2022/12/10 12:19:10;;;;;;;;;;;;;;;11.40;53.95;98044.25;4339671;32;34861;-67
2022/12/10 12:21:37;;;;;;;;;;;;;;;11.12;54.55;98032.91;4345772;32;33894;-67
2022/12/10 12:24:08;;;;;;;;;;;;;;;11.32;54.04;98031.66;4352663;32;34156;-66
2022/12/10 12:26:37;;;;;;;;;;;;;;;11.05;55.05;98026.53;4354837;32;32949;-68
2022/12/10 12:29:13;;;;;;;;;;;;;;;10.70;55.88;98031.84;4340797;32;34233;-67
2022/12/10 12:31:41;;;;;;;;;;;;;;;10.84;55.63;98027.72;4366125;32;35285;-67
2022/12/10 12:34:29;;;;;;;;;;;;;;;10.74;55.48;98032.34;4353494;32;32721;-67
2022/12/10 12:36:56;;;;;;;;;;;;;;;10.63;56.01;98021.94;4350538;32;33902;-66
2022/12/10 12:39:24;;;;;;;;;;;;;;;10.69;55.51;98016.78;4360115;32;33101;-69
2022/12/10 12:41:54;;;;;;;;;;;;;;;10.28;57.05;98020.16;4360114;32;35687;-66
2022/12/10 12:44:32;;;;;;;;;;;;;;;10.96;55.01;98021.09;4359445;32;33525;-69
2022/12/10 12:47:02;;;;;;;;;;;;;;;10.55;56.13;98022.69;4343471;32;34534;-67
2022/12/10 12:49:31;;;;;;;;;;;;;;;10.49;56.42;98034.84;4358218;32;34062;-67
2022/12/10 12:52:13;;;;;;;;;;;;;;;10.92;54.86;98027.78;4345328;32;35800;-66
2022/12/10 12:54:41;;;;;;;;;;;;;;;10.57;55.38;98028.72;4358985;32;33121;-66
2022/12/10 12:57:28;;;;;;;;;;;;;;;11.01;54.23;98041.19;4351952;32;33828;-66
2022/12/10 13:00:09;;;;;;;;;;;;;;;10.69;55.33;98038.19;4348005;32;33903;-67
2022/12/10 13:02:36;;;;;;;;;;;;;;;10.84;55.19;98043.78;4356916;32;32864;-67
2022/12/10 13:05:04;;;;;;;;;;;;;;;10.71;55.39;98046.03;4359546;32;34033;-66
2022/12/10 13:07:32;;;;;;;;;;;;;;;10.76;55.20;98049.09;4348396;32;33183;-67
2022/12/10 13:10:06;;;;;;;;;;;;;;;10.63;55.93;98054.88;4350813;32;35510;-68
2022/12/10 13:12:40;;;;;;;;;;;;;;;10.88;54.07;98071.94;4361061;32;34238;-67